Whiteman AFB, Missouri
Current Conditions -  °F | °C
As of 9:58 AM on Wednesday 22 Oct 2014 (Local Time) from KSZL Reporting Station
Clear Clear  
Wind Chill: 56°   Ceiling: Unl
Heat Index: 56°   Visibility: 10mi
Dew Point: 46°   Wind: 12mph
Humidity: 70%   Direction: 150°SSE
Pressure: 30.24"   Gusts: 17mph
Location:  38.73°N, 93.55°W
Report Text: KSZL 221458Z AUTO 15010G15KT 10SM CLR 13/08 A3024 RMK AO2 SLP243 T01330079 50010 $
Loading
Personal Weather Stations






























Interactive Weather Map
Tropical Storm Tracking
New forecast layout! Learn more

10-Day Weather Forecast

Advertisements
Track Severe Weather on mobile